createdAt,value
2022-10-11T00:01:09.646Z,106.03
2022-10-11T00:03:38.233Z,57.30
2022-10-11T00:06:08.358Z,76.57
2022-10-11T00:08:37.115Z,61.83
2022-10-11T00:11:08.770Z,61.97
2022-10-11T00:13:37.918Z,63.67
2022-10-11T00:16:12.788Z,69.70
2022-10-11T00:18:42.160Z,90.47
2022-10-11T00:21:14.782Z,106.18
2022-10-11T00:23:44.868Z,66.78
2022-10-11T00:26:13.644Z,61.13
2022-10-11T00:28:43.167Z,56.83
2022-10-11T00:31:14.465Z,56.50
2022-10-11T00:33:43.470Z,63.53
2022-10-11T00:36:15.387Z,59.92
2022-10-11T00:38:46.165Z,55.70
2022-10-11T00:41:15.230Z,56.15
2022-10-11T00:43:44.291Z,51.30
2022-10-11T00:46:19.429Z,49.28
2022-10-11T00:48:51.930Z,49.95
2022-10-11T00:51:39.876Z,50.63
2022-10-11T00:54:12.492Z,55.65
2022-10-11T00:56:44.059Z,48.65
2022-10-11T00:59:16.727Z,50.67
2022-10-11T01:01:45.929Z,50.00
2022-10-11T01:04:14.714Z,50.03
2022-10-11T01:06:43.997Z,48.22
2022-10-11T01:09:13.778Z,53.25
2022-10-11T01:11:44.860Z,49.78
2022-10-11T01:14:31.874Z,48.30
2022-10-11T01:17:30.136Z,46.08
2022-10-11T01:20:25.274Z,51.83
2022-10-11T01:23:19.064Z,49.10
2022-10-11T01:25:55.345Z,45.78
2022-10-11T01:28:39.674Z,50.47
2022-10-11T01:31:22.379Z,45.33
2022-10-11T01:33:57.327Z,50.05
2022-10-11T01:36:32.071Z,46.63
2022-10-11T01:39:20.937Z,49.80
2022-10-11T01:41:54.835Z,47.83
2022-10-11T01:44:27.582Z,46.25
2022-10-11T01:46:56.573Z,46.47
2022-10-11T01:49:25.101Z,47.15
2022-10-11T01:51:56.895Z,50.08
2022-10-11T01:54:50.207Z,48.22
2022-10-11T01:57:42.475Z,49.47
2022-10-11T02:00:29.554Z,49.72
2022-10-11T02:03:25.791Z,45.67
2022-10-11T02:06:31.680Z,48.50
2022-10-11T02:09:09.342Z,44.88
2022-10-11T02:11:39.986Z,49.80
2022-10-11T02:14:26.058Z,45.85
2022-10-11T02:17:15.729Z,46.97
2022-10-11T02:19:49.542Z,48.15
2022-10-11T02:22:33.679Z,46.65
2022-10-11T02:25:07.563Z,41.15
2022-10-11T02:27:40.726Z,43.65
2022-10-11T02:30:11.508Z,36.97
2022-10-11T02:32:44.921Z,40.63
2022-10-11T02:35:14.650Z,40.72
2022-10-11T02:37:45.927Z,38.03
2022-10-11T02:40:38.500Z,36.47
2022-10-11T02:43:18.520Z,36.70
2022-10-11T02:45:55.326Z,40.63
2022-10-11T02:48:26.109Z,34.25
2022-10-11T02:50:56.978Z,35.67
2022-10-11T02:53:27.679Z,35.30
2022-10-11T02:55:57.274Z,35.35
2022-10-11T02:58:26.686Z,32.47
2022-10-11T03:00:55.516Z,31.23
2022-10-11T03:03:24.182Z,31.80
2022-10-11T03:06:00.103Z,31.27
2022-10-11T03:08:29.664Z,31.10
2022-10-11T03:10:58.726Z,33.67
2022-10-11T03:13:28.526Z,34.38
2022-10-11T03:16:07.434Z,34.47
2022-10-11T03:18:36.578Z,34.75
2022-10-11T03:21:05.536Z,32.07
2022-10-11T03:23:34.371Z,33.63
2022-10-11T03:26:03.293Z,30.77
2022-10-11T03:28:32.978Z,29.90
2022-10-11T03:31:01.559Z,33.72
2022-10-11T03:33:30.290Z,32.08
2022-10-11T03:35:59.834Z,30.40
2022-10-11T03:38:29.211Z,32.03
2022-10-11T03:40:58.001Z,32.55
2022-10-11T03:43:27.255Z,41.45
2022-10-11T03:45:55.907Z,34.92
2022-10-11T03:48:28.043Z,33.20
2022-10-11T03:50:56.686Z,33.17
2022-10-11T03:53:25.756Z,33.72
2022-10-11T03:55:56.222Z,31.60
2022-10-11T03:58:25.860Z,31.63
2022-10-11T04:00:54.936Z,32.17
2022-10-11T04:03:23.914Z,32.42
2022-10-11T04:05:55.294Z,37.42
2022-10-11T04:08:24.317Z,35.40
2022-10-11T04:10:53.101Z,36.55
2022-10-11T04:13:21.991Z,35.10
2022-10-11T04:15:50.948Z,37.30
2022-10-11T04:18:20.827Z,37.40
2022-10-11T04:20:50.044Z,35.00
2022-10-11T04:23:18.924Z,37.55
2022-10-11T04:25:49.116Z,40.72
2022-10-11T04:28:18.607Z,38.22
2022-10-11T04:30:47.869Z,37.92
2022-10-11T04:33:16.689Z,38.92
2022-10-11T04:35:45.500Z,38.63
2022-10-11T04:38:14.755Z,38.88
2022-10-11T04:40:43.508Z,38.17
2022-10-11T04:43:12.488Z,41.35
2022-10-11T04:45:41.110Z,42.35
2022-10-11T04:48:10.345Z,37.42
2022-10-11T04:50:39.137Z,35.45
2022-10-11T04:53:09.434Z,39.47
2022-10-11T04:55:38.276Z,40.03
2022-10-11T04:58:06.903Z,38.60
2022-10-11T05:00:35.958Z,43.15
2022-10-11T05:03:04.866Z,36.53
2022-10-11T05:05:33.691Z,38.63
2022-10-11T05:08:02.335Z,37.35
2022-10-11T05:10:31.401Z,35.08
2022-10-11T05:13:00.087Z,36.27
2022-10-11T05:15:28.942Z,35.93
2022-10-11T05:17:57.565Z,40.50
2022-10-11T05:20:26.778Z,38.72
2022-10-11T05:22:55.366Z,34.57
2022-10-11T05:25:24.206Z,36.30
2022-10-11T05:27:52.768Z,43.03
2022-10-11T05:30:22.169Z,40.15
2022-10-11T05:32:50.905Z,37.58
2022-10-11T05:35:20.005Z,36.45
2022-10-11T05:37:48.899Z,37.85
2022-10-11T05:40:17.832Z,35.97
2022-10-11T05:42:46.663Z,34.28
2022-10-11T05:45:15.525Z,34.15
2022-10-11T05:47:44.294Z,36.75
2022-10-11T05:50:13.264Z,37.22
2022-10-11T05:52:42.055Z,36.58
2022-10-11T05:55:11.519Z,38.00
2022-10-11T05:57:40.547Z,34.28
2022-10-11T06:00:10.133Z,30.95
2022-10-11T06:02:42.463Z,32.08
2022-10-11T06:05:11.867Z,33.17
2022-10-11T06:07:41.184Z,27.88
2022-10-11T06:10:10.964Z,36.08
2022-10-11T06:12:40.956Z,29.95
2022-10-11T06:15:11.775Z,30.17
2022-10-11T06:17:40.897Z,27.50
2022-10-11T06:20:10.444Z,29.27
2022-10-11T06:22:52.238Z,32.78
2022-10-11T06:25:21.727Z,28.40
2022-10-11T06:27:50.553Z,27.65
2022-10-11T06:30:19.590Z,28.00
2022-10-11T06:32:48.430Z,25.90
2022-10-11T06:35:17.406Z,27.10
2022-10-11T06:37:46.251Z,26.83
2022-10-11T06:40:15.243Z,26.10
2022-10-11T06:42:44.727Z,29.38
2022-10-11T06:45:13.943Z,32.70
2022-10-11T06:47:42.687Z,33.60
2022-10-11T06:50:11.626Z,34.03
2022-10-11T06:52:40.449Z,31.83
2022-10-11T06:55:09.854Z,36.20
2022-10-11T06:57:38.566Z,29.23
2022-10-11T07:00:12.509Z,32.10
2022-10-11T07:02:42.172Z,30.73
2022-10-11T07:05:11.620Z,33.97
2022-10-11T07:07:40.563Z,33.00
2022-10-11T07:10:09.678Z,30.60
2022-10-11T07:12:38.775Z,31.37
2022-10-11T07:15:08.008Z,31.50
2022-10-11T07:17:37.451Z,35.10
2022-10-11T07:20:08.100Z,34.75
2022-10-11T07:22:37.199Z,32.78
2022-10-11T07:25:06.225Z,33.07
2022-10-11T07:27:35.391Z,30.40
2022-10-11T07:30:04.562Z,32.47
2022-10-11T07:32:33.773Z,31.83
2022-10-11T07:35:02.551Z,32.67
2022-10-11T07:37:31.457Z,29.70
2022-10-11T07:40:00.048Z,30.15
2022-10-11T07:42:29.070Z,27.05
2022-10-11T07:44:58.006Z,30.88
2022-10-11T07:47:27.928Z,28.83
2022-10-11T07:49:56.958Z,28.60
2022-10-11T07:52:25.760Z,31.35
2022-10-11T07:54:54.370Z,31.33
2022-10-11T07:57:23.306Z,32.45
2022-10-11T07:59:51.994Z,32.33
2022-10-11T08:02:20.757Z,32.35
2022-10-11T08:04:49.787Z,32.22
2022-10-11T08:07:19.048Z,30.50
2022-10-11T08:09:47.641Z,31.58
2022-10-11T08:12:16.585Z,37.30
2022-10-11T08:14:45.318Z,33.13
2022-10-11T08:17:15.121Z,33.40
2022-10-11T08:19:43.887Z,31.50
2022-10-11T08:22:12.683Z,33.30
2022-10-11T08:24:41.299Z,29.40
2022-10-11T08:27:10.250Z,29.23
2022-10-11T08:29:39.451Z,31.37
2022-10-11T08:32:12.787Z,27.85
2022-10-11T08:34:41.612Z,28.70
2022-10-11T08:37:10.969Z,30.05
2022-10-11T08:39:40.327Z,27.15
2022-10-11T08:42:15.160Z,32.85
2022-10-11T08:45:10.512Z,31.87
2022-10-11T08:47:46.027Z,32.30
2022-10-11T08:50:25.527Z,30.08
2022-10-11T08:53:07.818Z,31.60
2022-10-11T08:55:52.563Z,28.27
2022-10-11T08:58:26.592Z,26.40
2022-10-11T09:00:57.937Z,26.33
2022-10-11T09:03:47.107Z,22.98
2022-10-11T09:06:25.360Z,26.63
2022-10-11T09:09:28.538Z,26.42
2022-10-11T09:12:16.353Z,27.07
2022-10-11T09:15:10.290Z,28.23
2022-10-11T09:18:06.246Z,31.00
2022-10-11T09:20:50.022Z,27.85
2022-10-11T09:23:39.979Z,24.97
2022-10-11T09:26:11.483Z,24.48
2022-10-11T09:28:51.586Z,23.45
2022-10-11T09:31:21.047Z,24.63
2022-10-11T09:33:52.903Z,27.50
2022-10-11T09:36:32.204Z,26.15
2022-10-11T09:39:15.937Z,27.48
2022-10-11T09:41:58.266Z,31.70
2022-10-11T09:44:33.894Z,29.75
2022-10-11T09:47:02.868Z,29.30
2022-10-11T09:49:46.492Z,30.35
2022-10-11T09:52:21.281Z,30.73
2022-10-11T09:54:58.884Z,34.92
2022-10-11T09:57:31.192Z,33.05
2022-10-11T10:00:36.024Z,34.17
2022-10-11T10:03:05.975Z,35.10
2022-10-11T10:05:40.729Z,33.85
2022-10-11T10:08:12.814Z,34.40
2022-10-11T10:11:11.779Z,35.67
2022-10-11T10:13:43.344Z,36.95
2022-10-11T10:16:28.872Z,35.33
2022-10-11T10:19:01.268Z,37.08
2022-10-11T10:21:36.989Z,35.38
2022-10-11T10:24:46.115Z,39.53
2022-10-11T10:27:24.900Z,39.30
2022-10-11T10:30:17.769Z,36.90
2022-10-11T10:32:58.621Z,41.65
2022-10-11T10:35:54.880Z,40.25
2022-10-11T10:38:41.887Z,43.55
2022-10-11T10:41:14.121Z,35.08
2022-10-11T10:43:46.812Z,34.45
2022-10-11T10:46:24.498Z,37.85
2022-10-11T10:49:51.947Z,34.30
2022-10-11T10:52:22.521Z,39.33
2022-10-11T10:55:15.615Z,40.60
2022-10-11T10:58:02.424Z,39.30
2022-10-11T11:00:40.647Z,39.72
2022-10-11T11:03:28.357Z,37.40
2022-10-11T11:06:19.097Z,33.05
2022-10-11T11:09:31.171Z,30.05
2022-10-11T11:12:30.482Z,35.00
2022-10-11T11:15:40.152Z,30.77
2022-10-11T11:18:29.439Z,33.80
2022-10-11T11:21:55.771Z,37.17
2022-10-11T11:24:51.942Z,32.20
2022-10-11T11:27:32.841Z,31.95
2022-10-11T11:30:08.014Z,35.05
2022-10-11T11:32:44.785Z,34.08
2022-10-11T11:35:35.195Z,45.40
2022-10-11T11:38:31.897Z,36.25
2022-10-11T11:41:06.374Z,35.33
2022-10-11T11:43:41.611Z,34.58
2022-10-11T11:46:16.724Z,40.05
2022-10-11T11:48:46.173Z,35.88
2022-10-11T11:51:30.583Z,40.50
2022-10-11T11:54:16.724Z,40.38
2022-10-11T11:57:07.155Z,42.08
2022-10-11T11:59:53.041Z,41.83
2022-10-11T12:02:43.477Z,41.60
2022-10-11T12:05:17.107Z,40.65
2022-10-11T12:07:55.132Z,41.88
2022-10-11T12:10:35.970Z,39.75
2022-10-11T12:13:09.523Z,38.22
2022-10-11T12:15:38.980Z,44.28
2022-10-11T12:18:16.921Z,44.58
2022-10-11T12:20:46.129Z,45.53
2022-10-11T12:23:30.021Z,42.42
2022-10-11T12:26:20.092Z,51.45
2022-10-11T12:29:29.053Z,50.33
2022-10-11T12:32:01.690Z,48.45
2022-10-11T12:34:37.540Z,49.00
2022-10-11T12:37:21.709Z,44.72
2022-10-11T12:39:54.887Z,46.42
2022-10-11T12:42:36.166Z,45.58
2022-10-11T12:45:14.605Z,43.58
2022-10-11T12:48:01.827Z,43.47
2022-10-11T12:50:58.530Z,46.75
2022-10-11T12:53:42.252Z,45.58
2022-10-11T12:56:15.562Z,45.13
2022-10-11T12:58:51.316Z,42.13
2022-10-11T13:01:24.010Z,46.65
2022-10-11T13:04:12.636Z,44.72
2022-10-11T13:06:57.688Z,48.97
2022-10-11T13:09:32.623Z,43.40
2022-10-11T13:12:07.731Z,43.63
2022-10-11T13:14:40.034Z,44.53
2022-10-11T13:17:18.324Z,45.40
2022-10-11T13:19:47.494Z,43.50
2022-10-11T13:22:22.891Z,41.72
2022-10-11T13:24:51.694Z,44.72
2022-10-11T13:27:27.334Z,37.13
2022-10-11T13:30:01.599Z,39.25
2022-10-11T13:32:33.453Z,35.70
2022-10-11T13:35:05.947Z,36.60
2022-10-11T13:37:45.622Z,34.95
2022-10-11T13:40:16.903Z,33.75
2022-10-11T13:42:49.309Z,37.30
2022-10-11T13:45:27.200Z,35.08
2022-10-11T13:47:56.705Z,37.38
2022-10-11T13:50:33.129Z,38.20
2022-10-11T13:53:26.607Z,34.25
2022-10-11T13:56:01.953Z,40.53
2022-10-11T13:58:41.775Z,37.38
2022-10-11T14:01:28.781Z,41.30
2022-10-11T14:04:03.279Z,41.92
2022-10-11T14:06:46.587Z,42.55
2022-10-11T14:09:40.666Z,45.15
2022-10-11T14:12:30.104Z,41.08
2022-10-11T14:15:00.555Z,42.95
2022-10-11T14:17:46.844Z,42.97
2022-10-11T14:20:26.419Z,39.80
2022-10-11T14:22:59.350Z,40.10
2022-10-11T14:25:28.269Z,41.45
2022-10-11T14:27:57.791Z,47.25
2022-10-11T14:30:28.582Z,38.83
2022-10-11T14:33:00.765Z,44.40
2022-10-11T14:35:33.098Z,46.85
2022-10-11T14:38:02.244Z,43.72
2022-10-11T14:40:33.207Z,41.58
2022-10-11T14:43:02.215Z,43.60
2022-10-11T14:45:31.449Z,44.50
2022-10-11T14:48:00.523Z,43.35
2022-10-11T14:50:34.886Z,45.67
2022-10-11T14:53:05.537Z,43.23
2022-10-11T14:55:35.934Z,38.65
2022-10-11T14:58:08.926Z,40.25
2022-10-11T15:00:38.550Z,42.83
2022-10-11T15:03:10.433Z,39.40
2022-10-11T15:05:40.087Z,41.22
2022-10-11T15:08:09.304Z,42.80
2022-10-11T15:10:42.369Z,43.60
2022-10-11T15:13:11.919Z,41.10
2022-10-11T15:15:43.119Z,43.03
2022-10-11T15:18:18.606Z,43.75
2022-10-11T15:20:48.622Z,39.30
2022-10-11T15:23:17.512Z,42.38
2022-10-11T15:25:46.629Z,38.20
2022-10-11T15:28:29.440Z,43.95
2022-10-11T15:30:59.568Z,37.38
2022-10-11T15:33:28.298Z,37.53
2022-10-11T15:35:57.019Z,35.60
2022-10-11T15:38:27.327Z,38.78
2022-10-11T15:40:57.127Z,38.40
2022-10-11T15:43:25.942Z,35.13
2022-10-11T15:45:57.371Z,36.60
2022-10-11T15:48:27.711Z,38.78
2022-10-11T15:50:57.022Z,34.70
2022-10-11T15:53:32.213Z,35.05
2022-10-11T15:56:10.111Z,37.78
2022-10-11T15:58:42.460Z,36.17
2022-10-11T16:01:21.434Z,38.20
2022-10-11T16:03:51.896Z,33.28
2022-10-11T16:06:22.087Z,35.65
2022-10-11T16:08:51.368Z,37.92
2022-10-11T16:11:20.261Z,33.40
2022-10-11T16:13:50.098Z,38.47
2022-10-11T16:16:19.190Z,35.80
2022-10-11T16:18:47.821Z,39.13
2022-10-11T16:21:16.706Z,37.28
2022-10-11T16:23:45.848Z,34.10
2022-10-11T16:26:17.342Z,38.40
2022-10-11T16:28:48.619Z,38.03
2022-10-11T16:31:22.169Z,37.40
2022-10-11T16:33:53.818Z,36.88
2022-10-11T16:36:36.966Z,38.15
2022-10-11T16:39:13.467Z,39.92
2022-10-11T16:41:43.750Z,36.03
2022-10-11T16:44:21.622Z,42.83
2022-10-11T16:46:51.279Z,35.87
2022-10-11T16:49:25.878Z,38.65
2022-10-11T16:51:57.651Z,43.00
2022-10-11T16:54:34.170Z,39.20
2022-10-11T16:57:04.094Z,44.22
2022-10-11T16:59:32.929Z,43.22
2022-10-11T17:02:02.188Z,44.08
2022-10-11T17:04:31.112Z,42.30
2022-10-11T17:07:00.685Z,39.60
2022-10-11T17:09:29.666Z,41.90
2022-10-11T17:11:58.712Z,42.85
2022-10-11T17:14:27.767Z,41.03
2022-10-11T17:16:56.878Z,39.45
2022-10-11T17:19:26.090Z,41.60
2022-10-11T17:21:55.570Z,43.83
2022-10-11T17:24:24.786Z,39.10
2022-10-11T17:26:55.278Z,42.60
2022-10-11T17:29:25.367Z,44.72
2022-10-11T17:31:55.066Z,44.47
2022-10-11T17:34:24.093Z,39.35
2022-10-11T17:36:53.393Z,39.78
2022-10-11T17:39:24.523Z,38.58
2022-10-11T17:41:54.101Z,48.17
2022-10-11T17:44:23.378Z,45.65
2022-10-11T17:46:52.294Z,46.10
2022-10-11T17:49:21.216Z,43.92
2022-10-11T17:51:50.134Z,47.47
2022-10-11T17:54:19.327Z,46.13
2022-10-11T17:56:48.162Z,45.87
2022-10-11T17:59:19.405Z,47.90
2022-10-11T18:01:48.990Z,45.85
2022-10-11T18:04:18.657Z,48.10
2022-10-11T18:06:49.491Z,45.28
2022-10-11T18:09:20.035Z,50.90
2022-10-11T18:11:50.192Z,43.17
2022-10-11T18:14:19.780Z,94.00
2022-10-11T18:16:48.735Z,54.45
2022-10-11T18:19:20.790Z,101.30
2022-10-11T18:21:50.006Z,34.55
2022-10-11T18:24:18.957Z,25.27
2022-10-11T18:26:48.337Z,24.27
2022-10-11T18:29:17.393Z,13.50
2022-10-11T18:31:47.002Z,11.27
2022-10-11T18:34:16.856Z,13.65
2022-10-11T18:36:46.129Z,10.75
2022-10-11T18:39:16.445Z,8.98
2022-10-11T18:41:45.753Z,12.57
2022-10-11T18:44:16.607Z,10.38
2022-10-11T18:46:47.367Z,9.90
2022-10-11T18:49:16.729Z,11.13
2022-10-11T18:51:47.015Z,10.85
2022-10-11T18:54:20.250Z,12.13
2022-10-11T18:56:50.804Z,11.30
2022-10-11T18:59:20.946Z,11.48
2022-10-11T19:01:53.417Z,16.55
2022-10-11T19:04:22.832Z,14.63
2022-10-11T19:06:54.279Z,15.05
2022-10-11T19:09:26.880Z,14.50
2022-10-11T19:11:58.238Z,13.70
2022-10-11T19:14:29.993Z,16.17
2022-10-11T19:16:59.656Z,19.17
2022-10-11T19:19:31.871Z,17.95
2022-10-11T19:22:01.940Z,20.52
2022-10-11T19:24:32.669Z,21.52
2022-10-11T19:27:03.326Z,20.77
2022-10-11T19:29:33.411Z,19.63
2022-10-11T19:32:05.244Z,21.58
2022-10-11T19:34:34.137Z,22.45
2022-10-11T19:37:04.302Z,20.52
2022-10-11T19:39:33.994Z,21.92
2022-10-11T19:42:02.822Z,21.88
2022-10-11T19:44:35.712Z,23.15
2022-10-11T19:47:07.929Z,21.17
2022-10-11T19:49:36.756Z,23.50
2022-10-11T19:52:06.338Z,20.58
2022-10-11T19:54:35.239Z,19.83
2022-10-11T19:57:04.238Z,20.98
2022-10-11T19:59:33.053Z,19.00
2022-10-11T20:02:02.388Z,16.05
2022-10-11T20:04:51.620Z,15.15
2022-10-11T20:07:21.362Z,14.25
2022-10-11T20:09:50.192Z,14.52
2022-10-11T20:12:19.430Z,6.80
2022-10-11T20:14:48.416Z,7.60
2022-10-11T20:17:17.505Z,6.25
2022-10-11T20:19:46.384Z,8.80
2022-10-11T20:22:15.473Z,11.13
2022-10-11T20:24:44.396Z,10.32
2022-10-11T20:27:13.619Z,11.07
2022-10-11T20:29:42.964Z,7.43
2022-10-11T20:32:12.205Z,8.32
2022-10-11T20:34:41.115Z,6.15
2022-10-11T20:37:10.286Z,6.68
2022-10-11T20:39:39.505Z,8.90
2022-10-11T20:42:09.320Z,8.13
2022-10-11T20:44:38.223Z,5.70
2022-10-11T20:47:07.682Z,5.40
2022-10-11T20:49:36.566Z,6.63
2022-10-11T20:52:05.753Z,2.90
2022-10-11T20:54:36.327Z,3.03
2022-10-11T20:57:06.286Z,3.55
2022-10-11T20:59:35.019Z,3.58
2022-10-11T21:02:04.072Z,3.47
2022-10-11T21:04:32.993Z,3.80
2022-10-11T21:07:01.999Z,3.08
2022-10-11T21:09:30.853Z,2.95
2022-10-11T21:12:01.562Z,2.30
2022-10-11T21:14:30.820Z,2.83
2022-10-11T21:16:59.754Z,2.70
2022-10-11T21:19:29.103Z,3.88
2022-10-11T21:21:57.872Z,1.88
2022-10-11T21:24:26.803Z,2.00
2022-10-11T21:27:00.269Z,3.55
2022-10-11T21:29:29.816Z,2.55
2022-10-11T21:31:58.778Z,3.05
2022-10-11T21:34:27.871Z,3.05
2022-10-11T21:36:56.672Z,2.23
2022-10-11T21:39:26.193Z,3.88
2022-10-11T21:41:55.074Z,2.87
2022-10-11T21:44:24.309Z,3.08
2022-10-11T21:47:06.939Z,2.60
2022-10-11T21:49:37.397Z,2.30
2022-10-11T21:52:14.769Z,1.92
2022-10-11T21:54:44.252Z,2.45
2022-10-11T21:57:13.183Z,3.40
2022-10-11T21:59:42.096Z,1.85
2022-10-11T22:02:11.331Z,2.55
2022-10-11T22:04:40.693Z,2.17
2022-10-11T22:07:09.492Z,1.98
2022-10-11T22:09:38.629Z,2.43
2022-10-11T22:12:08.191Z,1.92
2022-10-11T22:14:37.414Z,2.47
2022-10-11T22:17:06.419Z,2.90
2022-10-11T22:19:35.566Z,3.95
2022-10-11T22:22:04.405Z,2.88
2022-10-11T22:24:33.531Z,3.67
2022-10-11T22:27:02.410Z,2.87
2022-10-11T22:29:34.210Z,4.63
2022-10-11T22:32:03.693Z,2.70
2022-10-11T22:34:33.897Z,3.08
2022-10-11T22:37:02.889Z,2.25
2022-10-11T22:39:32.036Z,3.23
2022-10-11T22:42:01.104Z,2.40
2022-10-11T22:44:29.799Z,2.38
2022-10-11T22:46:59.298Z,2.50
2022-10-11T22:49:28.195Z,2.75
2022-10-11T22:51:57.077Z,3.92
2022-10-11T22:54:25.864Z,2.20
2022-10-11T22:56:54.836Z,2.90
2022-10-11T22:59:23.730Z,2.70
2022-10-11T23:01:52.980Z,2.47
2022-10-11T23:04:22.043Z,1.60
2022-10-11T23:06:51.063Z,1.90
2022-10-11T23:09:20.075Z,2.35
2022-10-11T23:11:49.086Z,2.50
2022-10-11T23:14:17.823Z,2.20
2022-10-11T23:16:47.506Z,1.85
2022-10-11T23:19:16.451Z,2.45
2022-10-11T23:21:45.492Z,2.08
2022-10-11T23:24:14.761Z,3.90
2022-10-11T23:26:43.708Z,2.38
2022-10-11T23:29:12.493Z,3.40
2022-10-11T23:31:41.732Z,2.50
2022-10-11T23:34:10.508Z,2.00
2022-10-11T23:36:39.411Z,2.50
2022-10-11T23:39:09.278Z,2.08
2022-10-11T23:41:39.269Z,2.00
2022-10-11T23:44:08.179Z,2.33
2022-10-11T23:46:37.361Z,2.97
2022-10-11T23:49:06.332Z,2.30
2022-10-11T23:51:35.492Z,2.28
2022-10-11T23:54:04.359Z,2.70
2022-10-11T23:56:33.501Z,4.60
2022-10-11T23:59:02.226Z,2.50
